Time;durP1;ratioP1;P1;durP2;ratioP2;P2;SDS_P1;SDS_P2;PMS_P1;PMS_P2;Temp;Humidity;BMP_temperature;BMP_pressure;BME280_temperature;BME280_humidity;BME280_pressure;Samples;Min_cycle;Max_cycle;Signal;HPM_P1;HPM_P2
2022/07/23 00:01:55;;;;;;;12.77;6.25;;;14.80;99.90;;;;;;5071648;28;20010;-73
2022/07/23 00:04:21;;;;;;;;;;;15.00;99.90;;;;;;5071772;28;20062;-71
2022/07/23 00:06:47;;;;;;;10.52;5.90;;;14.90;99.90;;;;;;5071473;28;19975;-71
2022/07/23 00:09:12;;;;;;;;;;;14.60;99.90;;;;;;5087580;28;20413;-71
2022/07/23 00:11:38;;;;;;;12.73;5.97;;;14.50;99.90;;;;;;5071660;28;19924;-72
2022/07/23 00:14:04;;;;;;;;;;;14.80;99.90;;;;;;5071087;28;20131;-73
2022/07/23 00:16:29;;;;;;;12.45;5.68;;;14.80;99.90;;;;;;5071497;28;20743;-72
2022/07/23 00:18:55;;;;;;;;;;;14.70;99.90;;;;;;5071876;28;20048;-74
2022/07/23 00:21:21;;;;;;;8.93;5.00;;;14.80;99.90;;;;;;5070328;28;20336;-72
2022/07/23 00:23:46;;;;;;;6.93;5.43;;;14.70;99.90;;;;;;5071388;28;20052;-71
2022/07/23 00:26:12;;;;;;;;;;;14.40;99.90;;;;;;5071858;28;20052;-73
2022/07/23 00:28:37;;;;;;;11.20;5.57;;;14.80;99.90;;;;;;5071398;28;20448;-72
2022/07/23 00:31:03;;;;;;;;;;;14.70;99.90;;;;;;5070586;28;20048;-71
2022/07/23 00:33:29;;;;;;;9.90;5.35;;;14.70;99.90;;;;;;5070260;28;19920;-72
2022/07/23 00:35:54;;;;;;;;;;;14.70;99.90;;;;;;5070786;28;20063;-71
2022/07/23 00:38:20;;;;;;;8.18;5.57;;;15.00;99.90;;;;;;5069880;28;19925;-71
2022/07/23 00:40:45;;;;;;;;;;;14.60;99.90;;;;;;5071547;28;20106;-72
2022/07/23 00:43:11;;;;;;;8.40;5.25;;;14.60;99.90;;;;;;5071199;28;19920;-71
2022/07/23 00:45:37;;;;;;;7.00;5.55;;;14.90;99.90;;;;;;5070285;28;20055;-71
2022/07/23 00:48:02;;;;;;;;;;;14.70;99.90;;;;;;5071614;28;20051;-71
2022/07/23 00:50:29;;;;;;;9.00;5.15;;;14.90;99.90;;;;;;5071394;28;20021;-73
2022/07/23 00:52:55;;;;;;;7.63;5.68;;;14.50;99.90;;;;;;5070083;28;20061;-71
2022/07/23 00:55:21;;;;;;;14.68;5.80;;;14.70;99.90;;;;;;5071294;28;20052;-72
2022/07/23 00:57:47;;;;;;;11.95;5.90;;;14.60;99.90;;;;;;5071312;28;20075;-71
2022/07/23 01:00:15;;;;;;;8.52;5.90;;;14.80;99.90;;;;;;5072532;28;20040;-71
2022/07/23 01:02:41;;;;;;;10.68;5.30;;;14.90;99.90;;;;;;5074764;28;20055;-74
2022/07/23 01:05:08;;;;;;;11.38;6.32;;;14.80;99.90;;;;;;5073774;28;20053;-71
2022/07/23 01:07:34;;;;;;;12.45;5.07;;;14.80;99.90;;;;;;5090308;28;20049;-71
2022/07/23 01:10:00;;;;;;;;;;;14.70;99.90;;;;;;5075326;28;20045;-71
2022/07/23 01:12:26;;;;;;;8.40;5.55;;;14.90;99.90;;;;;;5073663;28;19931;-73
2022/07/23 01:14:55;;;;;;;;;;;14.90;99.90;;;;;;5074149;28;20049;-71
2022/07/23 01:17:21;;;;;;;9.85;5.45;;;15.00;99.90;;;;;;5074553;28;19925;-72
2022/07/23 01:19:46;;;;;;;7.13;5.18;;;14.50;99.90;;;;;;5074826;28;20040;-70
2022/07/23 01:22:13;;;;;;;;;;;14.90;99.90;;;;;;5074639;28;20048;-70
2022/07/23 01:24:38;;;;;;;6.53;4.63;;;14.70;99.90;;;;;;5073391;28;19928;-71
2022/07/23 01:27:05;;;;;;;7.85;4.68;;;14.90;99.90;;;;;;5074418;28;20050;-71
2022/07/23 01:29:31;;;;;;;7.15;4.85;;;14.90;99.90;;;;;;5073435;28;20053;-73
2022/07/23 01:31:56;;;;;;;7.35;4.70;;;14.60;99.90;;;;;;5073377;28;20077;-71
2022/07/23 01:34:22;;;;;;;;;;;14.80;99.90;;;;;;5073536;28;20045;-79
2022/07/23 01:36:48;;;;;;;6.72;4.30;;;14.60;99.90;;;;;;5074542;28;19931;-71
2022/07/23 01:39:13;;;;;;;;;;;14.90;99.90;;;;;;5074853;28;20157;-71
2022/07/23 01:41:40;;;;;;;11.65;5.10;;;14.70;99.90;;;;;;5073352;28;19920;-71
2022/07/23 01:44:06;;;;;;;6.78;4.63;;;14.90;99.90;;;;;;5074180;28;20087;-70
2022/07/23 01:46:32;;;;;;;9.40;5.55;;;15.00;99.90;;;;;;5072792;28;20142;-72
2022/07/23 01:48:58;;;;;;;8.32;4.68;;;15.00;99.90;;;;;;5074060;28;20097;-71
2022/07/23 01:51:23;;;;;;;7.75;4.70;;;14.80;99.90;;;;;;5074002;28;20486;-71
2022/07/23 01:53:49;;;;;;;;;;;15.00;99.90;;;;;;5090142;28;20048;-71
2022/07/23 01:56:15;;;;;;;6.18;4.85;;;15.00;99.90;;;;;;5072742;28;19980;-71
2022/07/23 01:58:40;;;;;;;;;;;15.00;99.90;;;;;;5073085;28;20048;-71
2022/07/23 02:01:06;;;;;;;6.65;4.00;;;14.70;99.90;;;;;;5073654;28;19928;-71
2022/07/23 02:03:32;;;;;;;;;;;14.60;99.90;;;;;;5056082;28;20174;-72
2022/07/23 02:05:57;;;;;;;8.40;4.15;;;14.90;99.90;;;;;;5073705;28;19926;-72
2022/07/23 02:08:23;;;;;;;;;;;14.70;99.90;;;;;;5074208;28;20070;-72
2022/07/23 02:10:51;;;;;;;6.85;3.90;;;14.70;99.90;;;;;;5073230;28;19943;-71
2022/07/23 02:13:17;;;;;;;10.27;4.35;;;14.80;99.90;;;;;;5073633;28;20049;-71
2022/07/23 02:15:43;;;;;;;8.30;3.95;;;14.90;99.90;;;;;;5073526;28;20064;-71
2022/07/23 02:18:08;;;;;;;;;;;14.50;99.90;;;;;;5072589;28;20041;-72
2022/07/23 02:20:34;;;;;;;9.15;3.70;;;14.90;99.90;;;;;;5073926;28;19970;-71
2022/07/23 02:23:00;;;;;;;;;;;14.60;99.90;;;;;;5073778;28;20033;-71
2022/07/23 02:25:25;;;;;;;7.93;4.13;;;15.00;99.90;;;;;;5072491;28;19927;-71
2022/07/23 02:27:51;;;;;;;;;;;14.40;99.90;;;;;;5072639;28;20603;-70
2022/07/23 02:30:16;;;;;;;9.15;4.28;;;15.00;99.90;;;;;;5071855;28;20281;-70
2022/07/23 02:32:42;;;;;;;;;;;14.90;99.90;;;;;;5073358;28;20105;-72
2022/07/23 02:35:08;;;;;;;10.18;4.80;;;14.90;99.90;;;;;;5073256;28;20401;-72
2022/07/23 02:37:33;;;;;;;;;;;14.50;99.90;;;;;;5072707;28;20057;-70
2022/07/23 02:39:59;;;;;;;8.30;4.63;;;14.80;99.90;;;;;;5072932;28;19924;-72
2022/07/23 02:42:25;;;;;;;;;;;14.60;99.90;;;;;;5072254;28;20126;-72
2022/07/23 02:44:51;;;;;;;8.68;5.60;;;14.50;99.90;;;;;;5072809;28;19920;-72
2022/07/23 02:47:17;;;;;;;9.93;6.03;;;14.70;99.90;;;;;;5071405;28;20048;-73
2022/07/23 02:49:43;;;;;;;11.48;5.72;;;15.10;99.90;;;;;;5072048;28;20053;-72
2022/07/23 02:52:10;;;;;;;;;;;14.70;99.90;;;;;;5073511;28;20055;-70
2022/07/23 02:54:36;;;;;;;12.68;5.53;;;15.00;99.90;;;;;;5072842;28;20300;-72
2022/07/23 02:57:02;;;;;;;8.15;5.28;;;14.60;99.90;;;;;;5072796;28;20040;-70
2022/07/23 02:59:27;;;;;;;7.80;5.47;;;14.70;99.90;;;;;;5072623;28;20050;-73
2022/07/23 03:01:53;;;;;;;;;;;14.70;99.90;;;;;;5072607;28;20066;-70
2022/07/23 03:04:19;;;;;;;9.48;5.60;;;14.50;99.90;;;;;;5072842;28;19920;-70
2022/07/23 03:06:44;;;;;;;;;;;14.60;99.90;;;;;;5071937;28;20136;-72
2022/07/23 03:09:10;;;;;;;7.07;5.78;;;14.30;99.90;;;;;;5072539;28;20388;-71
2022/07/23 03:11:35;;;;;;;;;;;14.60;99.90;;;;;;5072863;28;20103;-71
2022/07/23 03:14:01;;;;;;;7.57;5.43;;;14.70;99.90;;;;;;5071199;28;19924;-72
2022/07/23 03:16:27;;;;;;;;;;;14.50;99.90;;;;;;5070926;28;20040;-72
2022/07/23 03:18:52;;;;;;;6.97;5.00;;;14.80;99.90;;;;;;5054717;28;20487;-73
2022/07/23 03:21:18;;;;;;;;;;;14.50;99.90;;;;;;5072797;28;20397;-71
2022/07/23 03:23:44;;;;;;;7.18;5.35;;;14.50;99.90;;;;;;5071586;28;19945;-72
2022/07/23 03:26:09;;;;;;;;;;;14.70;99.90;;;;;;5055193;28;20513;-71
2022/07/23 03:28:35;;;;;;;11.75;5.25;;;14.70;99.90;;;;;;5072255;28;20040;-71
2022/07/23 03:31:01;;;;;;;;;;;14.60;99.90;;;;;;5072525;28;20052;-71
2022/07/23 03:33:26;;;;;;;11.82;5.30;;;14.60;99.90;;;;;;5071415;28;19927;-72
2022/07/23 03:35:52;;;;;;;;;;;14.70;99.90;;;;;;5072453;28;20048;-70
2022/07/23 03:38:17;;;;;;;10.38;4.95;;;14.70;99.90;;;;;;5070954;28;19928;-72
2022/07/23 03:40:43;;;;;;;8.10;5.00;;;14.90;99.90;;;;;;5071757;28;20064;-74
2022/07/23 03:43:09;;;;;;;7.57;4.93;;;14.80;99.90;;;;;;5072008;28;20106;-72
2022/07/23 03:45:34;;;;;;;6.40;4.60;;;14.90;99.90;;;;;;5071344;28;20136;-72
2022/07/23 03:48:00;;;;;;;;;;;14.50;99.90;;;;;;5072551;28;20044;-71
2022/07/23 03:50:26;;;;;;;10.80;5.65;;;14.80;99.90;;;;;;5071754;28;19928;-71
2022/07/23 03:52:51;;;;;;;;;;;15.00;99.90;;;;;;5072512;28;20041;-71
2022/07/23 03:55:18;;;;;;;9.88;5.85;;;15.10;99.90;;;;;;5071931;28;19920;-71
2022/07/23 03:57:44;;;;;;;11.55;5.97;;;14.90;99.90;;;;;;5071724;28;20127;-72
2022/07/23 04:00:10;;;;;;;;;;;14.50;99.90;;;;;;5071859;28;20052;-73
2022/07/23 04:02:37;;;;;;;7.97;5.70;;;14.80;99.90;;;;;;5071649;28;19921;-71
2022/07/23 04:05:04;;;;;;;10.52;5.50;;;14.80;99.90;;;;;;5071924;28;20045;-73
2022/07/23 04:07:30;;;;;;;9.75;6.38;;;14.80;99.90;;;;;;5070659;28;20052;-71
2022/07/23 04:09:56;;;;;;;;;;;14.60;99.90;;;;;;5072117;28;20040;-72
2022/07/23 04:12:21;;;;;;;10.88;5.88;;;14.70;99.90;;;;;;5070398;28;20058;-70
2022/07/23 04:14:47;;;;;;;;;;;14.80;99.90;;;;;;5070492;28;20048;-71
2022/07/23 04:17:12;;;;;;;11.00;6.55;;;14.60;99.90;;;;;;5071823;28;20034;-71
2022/07/23 04:19:43;;;;;;;11.40;6.00;;;14.50;99.90;;;;;;5071571;28;20135;-72
2022/07/23 04:22:10;;;;;;;11.10;6.80;;;15.10;99.90;;;;;;5071715;28;20421;-72
2022/07/23 04:24:36;;;;;;;9.57;6.22;;;14.70;99.90;;;;;;5071528;28;20111;-73
2022/07/23 04:27:02;;;;;;;9.18;6.43;;;14.80;99.90;;;;;;5071465;28;20485;-72
2022/07/23 04:29:28;;;;;;;;;;;14.50;99.90;;;;;;5070526;28;20462;-72
2022/07/23 04:31:53;;;;;;;11.93;6.05;;;14.80;99.90;;;;;;5071535;28;19924;-73
2022/07/23 04:34:19;;;;;;;;;;;14.50;99.90;;;;;;5073618;28;20048;-72
2022/07/23 04:36:44;;;;;;;12.55;6.00;;;14.40;99.90;;;;;;5075414;28;20278;-72
2022/07/23 04:39:10;;;;;;;;;;;14.50;99.90;;;;;;5075755;28;20055;-71
2022/07/23 04:41:36;;;;;;;12.07;5.70;;;14.50;99.90;;;;;;5075438;28;19973;-71
2022/07/23 04:44:02;;;;;;;;;;;14.50;99.90;;;;;;5074211;28;20111;-73
2022/07/23 04:46:28;;;;;;;10.38;6.10;;;14.20;99.90;;;;;;5074258;28;20012;-72
2022/07/23 04:48:54;;;;;;;13.20;6.15;;;14.30;99.90;;;;;;5091114;28;20131;-73
2022/07/23 04:51:19;;;;;;;11.20;5.93;;;14.20;99.90;;;;;;5075188;28;20131;-71
2022/07/23 04:53:45;;;;;;;9.85;6.57;;;14.20;99.90;;;;;;5075224;28;20124;-71
2022/07/23 04:56:11;;;;;;;10.93;6.10;;;14.20;99.90;;;;;;5074131;28;20529;-71
2022/07/23 04:58:36;;;;;;;;;;;14.30;99.90;;;;;;5073849;28;20040;-71
2022/07/23 05:01:02;;;;;;;9.80;5.65;;;14.80;99.90;;;;;;5075126;28;20022;-71
2022/07/23 05:03:28;;;;;;;;;;;14.90;99.90;;;;;;5075424;28;20459;-73
2022/07/23 05:05:54;;;;;;;7.18;5.57;;;14.60;99.90;;;;;;5075016;28;20370;-72
2022/07/23 05:08:19;;;;;;;;;;;14.70;99.90;;;;;;5075216;28;20078;-72
2022/07/23 05:10:45;;;;;;;10.63;6.03;;;14.60;99.90;;;;;;5073799;28;19920;-71
2022/07/23 05:13:10;;;;;;;;;;;14.30;99.90;;;;;;5074837;28;20501;-72
2022/07/23 05:15:36;;;;;;;13.98;5.57;;;14.60;99.90;;;;;;5074701;28;19963;-72
2022/07/23 05:18:02;;;;;;;;;;;14.70;99.90;;;;;;5075368;28;20052;-71
2022/07/23 05:20:27;;;;;;;11.73;5.72;;;14.80;99.90;;;;;;5074818;28;19943;-72
2022/07/23 05:22:53;;;;;;;;;;;14.70;99.90;;;;;;5074050;28;20083;-71
2022/07/23 05:25:19;;;;;;;8.85;5.32;;;14.60;99.90;;;;;;5056860;28;19946;-72
2022/07/23 05:27:44;;;;;;;;;;;14.40;99.90;;;;;;5073617;28;20049;-74
2022/07/23 05:30:10;;;;;;;10.57;5.25;;;14.50;99.90;;;;;;5074388;28;20362;-72
2022/07/23 05:32:39;;;;;;;11.90;4.97;;;14.80;99.90;;;;;;5073343;28;20094;-72
2022/07/23 05:35:06;;;;;;;7.30;4.72;;;14.90;99.90;;;;;;5074560;28;20052;-74
2022/07/23 05:37:32;;;;;;;6.85;5.05;;;14.80;99.90;;;;;;5073005;28;20086;-73
2022/07/23 05:40:09;;;;;;;6.15;5.15;;;14.90;99.90;;;;;;5073144;28;20064;-73
2022/07/23 05:42:35;;;;;;;11.02;5.28;;;14.90;99.90;;;;;;5074064;28;20044;-75
2022/07/23 05:45:01;;;;;;;10.00;5.35;;;14.90;99.90;;;;;;5072873;28;20044;-73
2022/07/23 05:47:27;;;;;;;10.45;5.30;;;14.90;99.90;;;;;;5072332;28;20052;-74
2022/07/23 05:49:53;;;;;;;;;;;15.30;99.90;;;;;;5074661;28;20044;-74
2022/07/23 05:52:18;;;;;;;6.80;4.90;;;15.40;99.90;;;;;;5072999;28;19924;-73
2022/07/23 05:54:44;;;;;;;;;;;15.10;99.90;;;;;;5074336;28;20045;-74
2022/07/23 05:57:09;;;;;;;7.60;4.65;;;15.40;99.90;;;;;;5072919;28;20385;-74
2022/07/23 05:59:35;;;;;;;;;;;15.60;99.90;;;;;;5073209;28;20040;-74
2022/07/23 06:02:01;;;;;;;9.73;4.13;;;15.20;99.90;;;;;;5072633;28;19935;-74
2022/07/23 06:04:26;;;;;;;;;;;15.30;99.90;;;;;;5090115;28;20055;-75
2022/07/23 06:06:52;;;;;;;8.35;3.42;;;15.90;99.90;;;;;;5073978;28;19920;-73
2022/07/23 06:09:18;;;;;;;;;;;15.70;99.90;;;;;;5074044;28;20200;-73
2022/07/23 06:11:44;;;;;;;3.30;2.17;;;15.80;99.90;;;;;;5073314;28;20282;-73
2022/07/23 06:14:09;;;;;;;;;;;15.90;99.90;;;;;;5073258;28;20059;-74
2022/07/23 06:16:35;;;;;;;7.22;2.70;;;15.70;99.90;;;;;;5066325;28;20392;-82
2022/07/23 06:19:01;;;;;;;;;;;16.00;99.90;;;;;;5045202;28;20127;-73
2022/07/23 06:21:26;;;;;;;5.47;3.45;;;16.00;99.90;;;;;;5070534;28;19921;-73
2022/07/23 06:23:52;;;;;;;;;;;16.00;99.90;;;;;;5071128;28;20052;-74
2022/07/23 06:26:18;;;;;;;6.35;2.83;;;15.90;99.90;;;;;;5053160;28;20014;-75
2022/07/23 06:28:43;;;;;;;;;;;15.90;99.90;;;;;;5071973;28;20041;-79
2022/07/23 06:31:09;;;;;;;2.72;1.70;;;15.90;99.90;;;;;;5071631;28;19921;-72
2022/07/23 06:33:34;;;;;;;;;;;16.20;99.90;;;;;;5070488;28;20052;-72
2022/07/23 06:36:00;;;;;;;2.67;1.20;;;16.00;99.90;;;;;;5070811;28;19974;-74
2022/07/23 06:38:26;;;;;;;;;;;16.10;99.90;;;;;;5045642;28;20102;-77
2022/07/23 06:40:51;;;;;;;4.90;1.15;;;16.40;99.90;;;;;;5070166;28;19928;-72
2022/07/23 06:43:17;;;;;;;;;;;16.60;99.90;;;;;;5070838;28;20048;-73
2022/07/23 06:45:43;;;;;;;4.45;1.00;;;16.90;99.90;;;;;;5071686;28;19930;-72
2022/07/23 06:48:08;;;;;;;;;;;17.50;99.90;;;;;;5069446;28;20165;-72
2022/07/23 06:50:34;;;;;;;1.25;0.80;;;17.20;99.90;;;;;;5071568;28;19963;-72
2022/07/23 06:53:00;;;;;;;;;;;17.30;99.90;;;;;;5045718;28;20143;-73
2022/07/23 06:55:25;;;;;;;2.83;1.30;;;17.30;99.90;;;;;;5070384;28;20284;-72
2022/07/23 06:57:51;;;;;;;3.53;0.77;;;17.30;99.90;;;;;;5069302;28;20051;-72
2022/07/23 07:00:17;;;;;;;;;;;17.10;99.90;;;;;;5071396;28;20119;-70
2022/07/23 07:02:42;;;;;;;0.98;0.80;;;17.10;99.90;;;;;;5070549;28;19993;-71
2022/07/23 07:05:08;;;;;;;;;;;17.70;99.90;;;;;;5071554;28;20072;-72
2022/07/23 07:07:34;;;;;;;2.72;0.80;;;17.60;99.90;;;;;;5068993;28;20278;-72
2022/07/23 07:10:00;;;;;;;3.67;0.90;;;17.80;99.90;;;;;;5064804;28;20052;-72
2022/07/23 07:12:26;;;;;;;6.50;1.00;;;17.90;99.90;;;;;;5071264;28;20040;-72
2022/07/23 07:14:53;;;;;;;;;;;17.90;99.90;;;;;;5070376;28;20036;-71
2022/07/23 07:17:18;;;;;;;2.33;1.20;;;17.90;99.90;;;;;;5069546;28;19925;-70
2022/07/23 07:19:44;;;;;;;;;;;17.70;99.90;;;;;;5071463;28;20045;-71
2022/07/23 07:22:10;;;;;;;2.05;0.70;;;17.50;99.90;;;;;;5070427;28;19928;-71
2022/07/23 07:24:35;;;;;;;;;;;17.40;99.90;;;;;;5069638;28;20084;-73
2022/07/23 07:27:01;;;;;;;3.40;0.77;;;17.50;99.90;;;;;;5072177;28;19924;-72
2022/07/23 07:29:28;;;;;;;;;;;17.70;99.90;;;;;;5072773;28;20055;-69
2022/07/23 07:31:54;;;;;;;4.20;1.00;;;17.20;99.90;;;;;;5072068;28;20289;-67
2022/07/23 07:34:19;;;;;;;;;;;17.30;99.90;;;;;;5072637;28;20049;-72
2022/07/23 07:36:45;;;;;;;1.75;0.90;;;17.70;99.90;;;;;;5072309;28;19920;-70
2022/07/23 07:39:10;;;;;;;;;;;18.40;99.90;;;;;;5071842;28;20556;-74
2022/07/23 07:41:36;;;;;;;2.70;0.90;;;18.10;99.90;;;;;;5072069;28;20282;-74
2022/07/23 07:44:02;;;;;;;1.75;0.90;;;18.00;99.90;;;;;;5054327;28;20055;-73
2022/07/23 07:46:28;;;;;;;1.40;0.85;;;18.20;99.90;;;;;;5072066;28;20117;-72
2022/07/23 07:48:54;;;;;;;6.40;2.08;;;18.20;99.90;;;;;;5071966;28;20045;-72
2022/07/23 07:51:19;;;;;;;9.48;1.45;;;18.40;99.90;;;;;;5071930;28;20060;-72
2022/07/23 07:53:45;;;;;;;3.78;0.82;;;17.00;99.90;;;;;;5065386;28;20080;-71
2022/07/23 07:56:11;;;;;;;1.40;0.80;;;18.20;99.90;;;;;;5070569;28;20131;-72
2022/07/23 07:58:36;;;;;;;3.70;0.95;;;18.40;99.90;;;;;;5068618;28;20098;-75
2022/07/23 08:01:02;;;;;;;5.63;0.93;;;18.60;99.90;;;;;;5069912;28;20044;-72
2022/07/23 08:03:28;;;;;;;3.50;1.00;;;18.70;99.90;;;;;;5070203;28;20711;-72
2022/07/23 08:05:54;;;;;;;1.98;0.90;;;18.40;99.90;;;;;;5069764;28;20051;-72
2022/07/23 08:08:19;;;;;;;2.65;1.25;;;18.60;99.90;;;;;;5068869;28;20045;-71
2022/07/23 08:10:45;;;;;;;1.40;0.70;;;18.50;99.90;;;;;;5069720;28;20051;-71
2022/07/23 08:13:16;;;;;;;3.03;0.90;;;18.40;99.90;;;;;;5064890;28;20102;-73
2022/07/23 08:15:42;;;;;;;3.53;0.93;;;18.80;99.90;;;;;;5069417;28;20098;-73
2022/07/23 08:18:08;;;;;;;1.23;1.08;;;18.30;99.90;;;;;;5069569;28;20083;-71
2022/07/23 08:20:34;;;;;;;2.25;1.45;;;18.40;99.90;;;;;;5069810;28;20110;-70
2022/07/23 08:23:04;;;;;;;3.33;0.95;;;19.10;99.90;;;;;;5069501;28;20040;-72
2022/07/23 08:25:35;;;;;;;1.55;0.70;;;18.90;99.90;;;;;;5066548;28;20045;-74
2022/07/23 08:28:03;;;;;;;2.63;0.88;;;19.20;99.90;;;;;;5070353;28;20048;-70
2022/07/23 08:30:30;;;;;;;3.28;0.80;;;19.30;99.90;;;;;;5071595;28;20127;-71
2022/07/23 08:33:06;;;;;;;1.17;0.80;;;19.00;99.90;;;;;;5071505;28;20052;-72
2022/07/23 08:35:41;;;;;;;3.97;0.80;;;19.00;99.90;;;;;;5071020;28;20497;-71
2022/07/23 08:38:08;;;;;;;1.40;0.70;;;19.00;99.90;;;;;;5071435;28;20627;-74
2022/07/23 08:40:44;;;;;;;1.98;0.73;;;19.10;99.90;;;;;;5071301;28;20048;-71
2022/07/23 08:43:15;;;;;;;2.38;1.42;;;19.00;99.90;;;;;;5071464;28;20045;-71
2022/07/23 08:45:47;;;;;;;2.38;0.80;;;18.90;99.90;;;;;;5071360;28;20096;-73
2022/07/23 08:48:15;;;;;;;4.30;0.80;;;18.80;99.90;;;;;;5071613;28;20383;-71
2022/07/23 08:50:46;;;;;;;1.92;0.70;;;18.70;99.90;;;;;;5071192;28;20049;-73
2022/07/23 08:53:13;;;;;;;5.63;0.90;;;18.90;99.90;;;;;;5071306;28;20502;-70
2022/07/23 08:55:39;;;;;;;4.47;0.90;;;18.70;99.90;;;;;;5071475;28;20094;-71
2022/07/23 08:58:05;;;;;;;1.90;0.90;;;18.70;99.90;;;;;;5071295;28;20547;-71
2022/07/23 09:00:31;;;;;;;4.15;0.80;;;18.50;99.90;;;;;;5071171;28;20048;-71
2022/07/23 09:02:57;;;;;;;2.45;0.98;;;18.80;99.90;;;;;;5071337;28;20052;-72
2022/07/23 09:05:23;;;;;;;1.65;0.90;;;18.60;99.90;;;;;;5071131;28;20047;-70
2022/07/23 09:08:10;;;;;;;1.65;0.82;;;18.60;99.90;;;;;;5071201;28;20127;-70
2022/07/23 09:11:00;;;;;;;5.18;1.13;;;18.50;99.90;;;;;;5063368;28;20053;-70
2022/07/23 09:13:48;;;;;;;5.65;1.10;;;18.80;99.90;;;;;;5054097;28;20458;-76
2022/07/23 09:16:26;;;;;;;2.95;1.10;;;19.20;99.90;;;;;;5060796;28;20040;-71
2022/07/23 09:19:13;;;;;;;2.25;1.10;;;19.30;99.90;;;;;;5069193;28;20048;-69
2022/07/23 09:21:39;;;;;;;4.20;1.10;;;19.20;99.90;;;;;;5067919;28;20070;-71
2022/07/23 09:24:11;;;;;;;4.78;0.95;;;19.10;99.90;;;;;;5071730;28;20056;-70
2022/07/23 09:26:47;;;;;;;3.55;1.05;;;19.50;99.90;;;;;;5073082;28;20048;-71
2022/07/23 09:29:17;;;;;;;3.75;1.00;;;19.30;99.90;;;;;;5069243;28;20052;-71
2022/07/23 09:31:51;;;;;;;3.38;0.90;;;19.50;99.90;;;;;;5068361;28;20052;-83
2022/07/23 09:34:35;;;;;;;3.55;1.00;;;19.70;99.90;;;;;;5068240;28;20078;-81
2022/07/23 09:37:15;;;;;;;2.97;0.90;;;19.90;99.90;;;;;;5072900;28;20456;-70
2022/07/23 09:39:42;;;;;;;4.53;1.30;;;19.80;99.90;;;;;;5072732;28;20052;-70
2022/07/23 09:42:16;;;;;;;4.93;1.10;;;20.10;99.90;;;;;;5073907;28;20055;-70
2022/07/23 09:44:44;;;;;;;2.55;1.00;;;20.20;99.90;;;;;;5074359;28;20059;-72
2022/07/23 09:47:10;;;;;;;1.05;0.80;;;20.60;99.90;;;;;;5074415;28;20052;-70
2022/07/23 09:49:36;;;;;;;3.90;1.23;;;20.60;99.90;;;;;;5073855;28;20452;-69
2022/07/23 09:52:03;;;;;;;2.95;1.00;;;20.20;99.90;;;;;;5073156;28;20453;-69
2022/07/23 09:54:37;;;;;;;2.67;0.70;;;20.70;99.90;;;;;;5073965;28;20044;-70
2022/07/23 09:57:15;;;;;;;1.42;0.98;;;20.40;99.90;;;;;;5074214;28;20147;-70
2022/07/23 09:59:43;;;;;;;2.15;1.00;;;20.50;99.90;;;;;;5073896;28;20056;-70
2022/07/23 10:02:11;;;;;;;2.63;1.00;;;20.30;99.90;;;;;;5073574;28;20044;-70
2022/07/23 10:04:36;;;;;;;2.03;1.00;;;19.80;99.90;;;;;;5073918;28;20083;-70
2022/07/23 10:07:04;;;;;;;3.35;1.10;;;20.10;99.90;;;;;;5072442;28;20102;-69
2022/07/23 10:09:32;;;;;;;2.67;1.10;;;20.20;99.90;;;;;;5073699;28;20088;-70
2022/07/23 10:14:47;;;;;;;1.95;1.23;;;20.60;99.90;;;;;;5042139;28;20052;-70
2022/07/23 10:17:14;;;;;;;2.17;1.00;;;20.60;99.90;;;;;;5073242;28;20409;-70
2022/07/23 10:19:40;;;;;;;4.00;1.00;;;20.30;99.90;;;;;;5073370;28;20539;-69
2022/07/23 10:22:11;;;;;;;1.52;0.88;;;20.60;99.90;;;;;;5072359;28;20048;-70
2022/07/23 10:25:01;;;;;;;4.40;0.90;;;21.10;99.90;;;;;;5073557;28;20052;-73
2022/07/23 10:28:10;;;;;;;1.23;1.00;;;20.80;99.90;;;;;;5073512;28;20056;-70
2022/07/23 10:30:56;;;;;;;2.53;1.00;;;20.50;99.90;;;;;;5073595;28;20045;-69
2022/07/23 10:33:32;;;;;;;5.40;1.15;;;20.60;99.90;;;;;;5065526;28;20049;-69
2022/07/23 10:36:34;;;;;;;5.68;1.00;;;20.70;99.90;;;;;;5073158;28;20056;-69
2022/07/23 10:39:17;;;;;;;3.25;1.00;;;21.00;99.90;;;;;;5072844;28;20107;-66
2022/07/23 10:41:43;;;;;;;1.35;1.00;;;20.90;99.90;;;;;;5072921;28;20060;-73
2022/07/23 10:44:20;;;;;;;2.40;1.15;;;20.70;99.90;;;;;;5071173;28;20602;-67
2022/07/23 10:49:45;;;;;;;2.83;1.10;;;21.20;99.90;;;;;;5073121;28;20075;-67
2022/07/23 10:52:13;;;;;;;3.03;0.90;;;21.40;99.90;;;;;;5071657;28;20153;-65
2022/07/23 10:54:44;;;;;;;1.70;0.90;;;21.70;99.90;;;;;;5072853;28;20056;-70
2022/07/23 10:57:13;;;;;;;2.40;1.02;;;21.10;99.90;;;;;;5072942;28;20041;-68
2022/07/23 11:00:00;;;;;;;2.88;0.90;;;21.20;99.90;;;;;;5072570;28;20143;-72
2022/07/23 11:02:29;;;;;;;2.28;0.90;;;20.90;99.90;;;;;;5072053;28;20040;-74
2022/07/23 11:05:00;;;;;;;1.73;0.98;;;20.40;99.90;;;;;;5072207;28;20040;-74
2022/07/23 11:07:26;;;;;;;3.45;1.05;;;20.20;99.90;;;;;;5071515;28;20430;-72
2022/07/23 11:09:53;;;;;;;3.33;1.00;;;20.40;99.90;;;;;;5072467;28;20091;-73
2022/07/23 11:12:19;;;;;;;2.60;1.13;;;20.60;99.90;;;;;;5066254;28;20049;-74
2022/07/23 11:15:08;;;;;;;2.13;0.80;;;20.60;99.90;;;;;;5070767;28;20051;-73
2022/07/23 11:18:00;;;;;;;6.18;1.13;;;21.10;99.90;;;;;;5069276;28;20052;-73
2022/07/23 11:20:26;;;;;;;1.73;1.00;;;21.30;99.90;;;;;;5060784;28;20064;-72
2022/07/23 11:22:56;;;;;;;3.33;0.90;;;21.40;99.90;;;;;;5070664;28;20049;-74
2022/07/23 11:25:21;;;;;;;4.90;1.13;;;21.40;99.90;;;;;;5065171;28;20052;-72
2022/07/23 11:27:48;;;;;;;2.63;0.90;;;22.20;99.90;;;;;;5070013;28;20055;-73
2022/07/23 11:30:26;;;;;;;1.92;0.82;;;22.00;99.90;;;;;;5069143;28;20056;-70
2022/07/23 11:33:13;;;;;;;4.10;1.08;;;21.90;99.90;;;;;;5068820;28;20472;-73
2022/07/23 11:35:44;;;;;;;2.08;1.05;;;22.00;99.90;;;;;;5057491;28;20056;-73
2022/07/23 11:38:15;;;;;;;3.00;1.33;;;22.50;99.90;;;;;;5071825;28;20533;-72
2022/07/23 11:40:43;;;;;;;1.75;0.90;;;22.60;99.90;;;;;;5071982;28;20110;-73
2022/07/23 11:43:10;;;;;;;2.97;1.15;;;22.50;99.90;;;;;;5070997;28;20044;-74
2022/07/23 11:45:40;;;;;;;3.65;1.10;;;21.90;99.90;;;;;;5070277;28;20493;-75
2022/07/23 11:48:08;;;;;;;2.90;1.10;;;21.50;99.90;;;;;;5071393;28;20072;-73
2022/07/23 11:50:35;;;;;;;1.92;0.88;;;21.40;99.90;;;;;;5070699;28;20127;-74
2022/07/23 11:53:01;;;;;;;6.97;1.13;;;21.80;99.90;;;;;;5072180;28;20099;-74
2022/07/23 11:55:28;;;;;;;2.35;0.95;;;21.80;99.90;;;;;;5070441;28;20505;-74
2022/07/23 11:57:55;;;;;;;4.07;1.30;;;21.80;99.90;;;;;;5071366;28;20048;-74
2022/07/23 12:00:23;;;;;;;3.00;1.05;;;21.30;99.90;;;;;;5071618;28;20044;-73
2022/07/23 12:02:55;;;;;;;3.95;1.00;;;21.50;99.90;;;;;;5071241;28;20044;-74
2022/07/23 12:05:24;;;;;;;2.55;0.98;;;21.50;99.90;;;;;;5070080;28;20397;-72
2022/07/23 12:07:52;;;;;;;4.03;1.17;;;22.40;99.90;;;;;;5071579;28;20044;-76
2022/07/23 12:10:20;;;;;;;7.43;1.20;;;22.20;99.90;;;;;;5071261;28;20048;-74
2022/07/23 12:12:49;;;;;;;4.57;1.00;;;22.10;99.90;;;;;;5071315;28;20040;-71
2022/07/23 12:15:22;;;;;;;3.03;1.23;;;22.50;99.90;;;;;;5070385;28;20122;-72
2022/07/23 12:17:49;;;;;;;1.98;1.20;;;22.20;99.90;;;;;;5071038;28;20067;-72
2022/07/23 12:20:45;;;;;;;3.20;1.05;;;22.50;99.90;;;;;;5071469;28;20064;-74
2022/07/23 12:23:13;;;;;;;3.60;1.08;;;22.60;99.90;;;;;;5069595;28;20394;-73
2022/07/23 12:25:43;;;;;;;3.67;1.20;;;22.30;99.90;;;;;;5071042;28;20532;-76
2022/07/23 12:28:30;;;;;;;4.03;1.20;;;22.50;99.90;;;;;;5070035;28;20056;-75
2022/07/23 12:30:58;;;;;;;3.58;0.95;;;22.50;99.90;;;;;;5071301;28;20421;-75
2022/07/23 12:33:27;;;;;;;3.20;1.00;;;22.20;99.90;;;;;;5070816;28;20048;-74
2022/07/23 12:36:03;;;;;;;1.98;1.08;;;22.30;99.90;;;;;;5071106;28;20495;-74
2022/07/23 12:38:38;;;;;;;;;;;22.40;99.90;;;;;;5071634;28;20048;-75
2022/07/23 12:41:04;;;;;;;7.00;1.30;;;22.70;99.90;;;;;;5070979;28;20007;-73
2022/07/23 12:43:37;;;;;;;2.95;0.93;;;22.60;99.90;;;;;;5071131;28;20060;-74
2022/07/23 12:46:05;;;;;;;2.25;1.00;;;22.60;99.90;;;;;;5053446;28;20119;-74
2022/07/23 12:48:36;;;;;;;3.72;1.13;;;22.90;99.90;;;;;;5071133;28;20049;-74
2022/07/23 12:51:09;;;;;;;3.15;1.10;;;23.20;99.90;;;;;;5070997;28;20494;-75
2022/07/23 12:53:44;;;;;;;2.92;1.00;;;23.10;99.90;;;;;;5070935;28;20060;-75
2022/07/23 12:56:16;;;;;;;2.22;1.05;;;23.30;99.90;;;;;;5055761;28;20044;-75
2022/07/23 12:58:52;;;;;;;3.40;1.10;;;23.20;99.90;;;;;;5057250;28;20539;-74
2022/07/23 13:01:20;;;;;;;0.98;0.90;;;23.20;99.90;;;;;;5074777;28;20053;-76
2022/07/23 13:04:01;;;;;;;6.05;1.48;;;23.10;99.90;;;;;;5073508;28;20091;-76
2022/07/23 13:06:29;;;;;;;1.83;0.93;;;23.40;99.90;;;;;;5060163;28;20478;-76
2022/07/23 13:08:55;;;;;;;4.35;0.98;;;23.30;99.90;;;;;;5060418;28;20601;-74
2022/07/23 13:11:21;;;;;;;4.15;1.30;;;23.00;99.90;;;;;;5073511;28;20494;-76
2022/07/23 13:13:47;;;;;;;2.58;1.00;;;22.80;99.90;;;;;;5074703;28;20044;-70
2022/07/23 13:16:13;;;;;;;2.05;0.95;;;23.00;99.90;;;;;;5073384;28;20167;-73